Time;durP1;ratioP1;P1;durP2;ratioP2;P2;SDS_P1;SDS_P2;PMS_P1;PMS_P2;Temp;Humidity;BMP_temperature;BMP_pressure;BME280_temperature;BME280_humidity;BME280_pressure;Samples;Min_cycle;Max_cycle;Signal;HPM_P1;HPM_P2
2023/06/16 00:00:34;;;;;;;;;;;;;;;30.05;25.17;101072.41;5130120;27;19998;-63
2023/06/16 00:03:01;;;;;;;;;;;;;;;30.03;25.05;101065.50;5114409;28;20316;-62
2023/06/16 00:05:28;;;;;;;;;;;;;;;30.08;24.91;101069.00;5114391;28;19912;-62
2023/06/16 00:07:54;;;;;;;;;;;;;;;30.00;25.71;101058.66;5113198;28;19912;-62
2023/06/16 00:10:19;;;;;;;;;;;;;;;29.97;24.99;101050.97;5112830;28;19922;-62
2023/06/16 00:12:45;;;;;;;;;;;;;;;30.02;25.19;101055.59;5112956;28;19923;-62
2023/06/16 00:15:10;;;;;;;;;;;;;;;30.01;25.23;101051.97;5113278;28;19912;-63
2023/06/16 00:17:44;;;;;;;;;;;;;;;29.99;25.43;101058.97;5113559;28;19912;-62
2023/06/16 00:20:10;;;;;;;;;;;;;;;29.94;25.08;101050.75;5101181;28;19923;-62
2023/06/16 00:22:35;;;;;;;;;;;;;;;29.82;25.55;101052.09;5093798;28;19943;-61
2023/06/16 00:25:01;;;;;;;;;;;;;;;29.72;25.41;101046.78;5093787;28;19951;-61
2023/06/16 00:27:26;;;;;;;;;;;;;;;29.63;25.55;101056.94;5093231;28;20198;-61
2023/06/16 00:29:52;;;;;;;;;;;;;;;29.57;25.70;101052.59;5092383;28;19912;-61
2023/06/16 00:32:18;;;;;;;;;;;;;;;29.53;25.67;101046.84;5093469;28;19956;-62
2023/06/16 00:34:45;;;;;;;;;;;;;;;29.46;26.07;101050.06;5093578;28;20281;-61
2023/06/16 00:37:13;;;;;;;;;;;;;;;29.44;25.52;101045.94;5093627;28;19967;-62
2023/06/16 00:39:38;;;;;;;;;;;;;;;29.42;25.44;101046.28;5093385;28;19912;-61
2023/06/16 00:42:03;;;;;;;;;;;;;;;29.42;25.23;101037.97;5093429;28;19959;-62
2023/06/16 00:44:29;;;;;;;;;;;;;;;29.48;25.38;101053.34;5093615;28;19961;-61
2023/06/16 00:46:54;;;;;;;;;;;;;;;29.50;25.99;101044.72;5093467;28;19915;-61
2023/06/16 00:49:19;;;;;;;;;;;;;;;29.40;25.81;101043.00;5093179;28;19923;-61
2023/06/16 00:51:46;;;;;;;;;;;;;;;29.30;25.18;101038.44;5093168;28;19948;-61
2023/06/16 00:54:15;;;;;;;;;;;;;;;29.31;25.71;101039.28;5093110;28;19916;-62
2023/06/16 00:56:41;;;;;;;;;;;;;;;29.37;25.72;101035.28;5092285;28;19938;-62
2023/06/16 00:59:07;;;;;;;;;;;;;;;29.25;26.32;101037.72;5091893;28;20034;-62
2023/06/16 01:01:34;;;;;;;;;;;;;;;29.17;26.08;101038.44;5093185;28;19996;-62
2023/06/16 01:04:00;;;;;;;;;;;;;;;29.13;26.66;101032.69;5093124;28;19916;-63
2023/06/16 01:06:32;;;;;;;;;;;;;;;29.01;26.07;101033.19;5093372;28;20002;-62
2023/06/16 01:09:21;;;;;;;;;;;;;;;29.00;26.12;101031.53;5091827;28;19970;-62
2023/06/16 01:11:46;;;;;;;;;;;;;;;29.00;26.11;101028.75;5095503;28;20001;-62
2023/06/16 01:14:23;;;;;;;;;;;;;;;28.96;26.14;101031.31;5113145;28;19927;-62
2023/06/16 01:16:51;;;;;;;;;;;;;;;28.97;25.90;101026.59;5113328;28;20372;-62
2023/06/16 01:19:22;;;;;;;;;;;;;;;28.92;26.13;101023.94;5109122;28;19919;-62
2023/06/16 01:22:09;;;;;;;;;;;;;;;28.84;26.13;101030.97;5096584;28;20284;-61
2023/06/16 01:24:35;;;;;;;;;;;;;;;28.74;26.07;101020.91;5097098;28;20006;-60
2023/06/16 01:27:01;;;;;;;;;;;;;;;28.75;26.06;101025.31;5097133;28;19955;-63
2023/06/16 01:29:28;;;;;;;;;;;;;;;28.66;26.74;101016.09;5097185;28;19912;-61
2023/06/16 01:31:57;;;;;;;;;;;;;;;28.59;26.02;101026.69;5096952;28;19911;-60
2023/06/16 01:34:22;;;;;;;;;;;;;;;28.54;26.69;101022.06;5096814;28;20384;-61
2023/06/16 01:36:47;;;;;;;;;;;;;;;28.53;26.62;101022.41;5096790;28;19912;-62
2023/06/16 01:39:15;;;;;;;;;;;;;;;28.56;26.32;101017.06;5096908;28;19912;-60
2023/06/16 01:41:41;;;;;;;;;;;;;;;28.55;26.11;101028.44;5096579;28;19958;-61
2023/06/16 01:44:06;;;;;;;;;;;;;;;28.52;26.35;101024.31;5096595;28;19912;-61
2023/06/16 01:46:32;;;;;;;;;;;;;;;28.47;26.21;101016.09;5096532;28;19912;-60
2023/06/16 01:48:58;;;;;;;;;;;;;;;28.39;26.23;101025.88;5096247;28;19918;-61
2023/06/16 01:51:24;;;;;;;;;;;;;;;28.37;26.49;101024.53;5095067;28;19928;-61
2023/06/16 01:53:50;;;;;;;;;;;;;;;28.31;26.87;101025.75;5096757;28;19967;-61
2023/06/16 01:56:16;;;;;;;;;;;;;;;28.25;26.90;101019.47;5096760;28;19912;-60
2023/06/16 01:58:42;;;;;;;;;;;;;;;28.24;26.31;101019.78;5096450;28;19958;-62
2023/06/16 02:01:20;;;;;;;;;;;;;;;28.21;27.56;101025.88;5096535;28;19919;-61
2023/06/16 02:03:50;;;;;;;;;;;;;;;28.24;26.95;101025.28;5096685;28;19920;-62
2023/06/16 02:06:18;;;;;;;;;;;;;;;28.24;26.94;101026.09;5096420;28;20368;-62
2023/06/16 02:08:45;;;;;;;;;;;;;;;28.16;26.67;101032.31;5105279;28;19923;-60
2023/06/16 02:11:11;;;;;;;;;;;;;;;28.10;26.75;101031.56;5116718;28;20387;-62
2023/06/16 02:13:40;;;;;;;;;;;;;;;28.07;26.84;101034.09;5116872;28;19938;-61
2023/06/16 02:16:06;;;;;;;;;;;;;;;28.07;26.95;101034.91;5116814;27;20440;-61
2023/06/16 02:18:32;;;;;;;;;;;;;;;28.13;26.94;101038.44;5116766;28;19911;-61
2023/06/16 02:20:58;;;;;;;;;;;;;;;28.18;26.47;101036.41;5098138;28;19912;-61
2023/06/16 02:23:23;;;;;;;;;;;;;;;28.22;26.62;101030.31;5096081;28;19912;-62
2023/06/16 02:25:48;;;;;;;;;;;;;;;28.13;27.03;101036.47;5096030;28;19912;-62
2023/06/16 02:28:14;;;;;;;;;;;;;;;28.18;26.85;101035.59;5095868;28;19912;-61
2023/06/16 02:30:40;;;;;;;;;;;;;;;28.13;27.58;101036.47;5095828;28;20387;-61
2023/06/16 02:33:05;;;;;;;;;;;;;;;28.04;26.94;101038.25;5094618;28;19916;-61
2023/06/16 02:35:30;;;;;;;;;;;;;;;27.98;27.21;101031.19;5095719;28;20002;-60
2023/06/16 02:37:56;;;;;;;;;;;;;;;27.92;27.42;101035.94;5095722;28;19912;-60
2023/06/16 02:40:21;;;;;;;;;;;;;;;27.86;27.48;101028.84;5095643;28;19918;-60
2023/06/16 02:42:47;;;;;;;;;;;;;;;27.97;27.33;101029.53;5095580;28;20303;-60
2023/06/16 02:45:12;;;;;;;;;;;;;;;27.99;27.89;101030.06;5095846;28;19958;-62
2023/06/16 02:47:38;;;;;;;;;;;;;;;27.97;27.41;101027.59;5095512;28;20379;-62
2023/06/16 02:50:03;;;;;;;;;;;;;;;27.89;27.64;101024.66;5094127;28;19940;-61
2023/06/16 02:52:28;;;;;;;;;;;;;;;27.84;27.79;101027.47;5095540;28;19939;-62
2023/06/16 02:54:54;;;;;;;;;;;;;;;27.80;27.98;101025.31;5095058;28;20376;-61
2023/06/16 02:57:19;;;;;;;;;;;;;;;27.77;27.92;101022.31;5095498;28;20018;-62
2023/06/16 02:59:45;;;;;;;;;;;;;;;27.78;28.08;101026.72;5095238;28;19912;-61
2023/06/16 03:02:10;;;;;;;;;;;;;;;27.77;28.06;101033.38;5095310;28;19912;-62
2023/06/16 03:04:36;;;;;;;;;;;;;;;27.73;28.10;101026.78;5101326;28;20325;-62
2023/06/16 03:07:04;;;;;;;;;;;;;;;27.80;27.91;101027.22;5115977;28;19919;-62
2023/06/16 03:09:29;;;;;;;;;;;;;;;27.79;27.57;101025.59;5115534;28;19915;-61
2023/06/16 03:11:55;;;;;;;;;;;;;;;27.88;28.00;101026.59;5114982;28;19912;-62
2023/06/16 03:14:21;;;;;;;;;;;;;;;27.87;27.59;101024.13;5115590;27;19951;-63
2023/06/16 03:16:48;;;;;;;;;;;;;;;27.84;27.83;101021.94;5115166;27;20432;-62
2023/06/16 03:19:14;;;;;;;;;;;;;;;27.82;27.94;101025.00;5111810;28;20004;-62
2023/06/16 03:21:39;;;;;;;;;;;;;;;27.82;27.79;101022.22;5094916;28;20337;-63
2023/06/16 03:24:05;;;;;;;;;;;;;;;27.82;28.21;101016.72;5094759;28;19912;-61
2023/06/16 03:26:31;;;;;;;;;;;;;;;27.85;28.01;101012.56;5095342;28;19912;-62
2023/06/16 03:28:58;;;;;;;;;;;;;;;27.86;28.05;101016.94;5093558;28;19912;-61
2023/06/16 03:31:23;;;;;;;;;;;;;;;27.88;28.03;101014.72;5095064;28;19912;-62
2023/06/16 03:33:49;;;;;;;;;;;;;;;27.96;27.46;101022.38;5094502;28;20376;-62
2023/06/16 03:36:14;;;;;;;;;;;;;;;28.00;27.88;101024.22;5094828;28;19912;-61
2023/06/16 03:38:40;;;;;;;;;;;;;;;28.06;27.65;101019.44;5094645;28;20273;-61
2023/06/16 03:41:05;;;;;;;;;;;;;;;28.04;27.56;101026.41;5094478;28;19912;-63
2023/06/16 03:43:30;;;;;;;;;;;;;;;28.03;27.21;101019.22;5094362;28;19912;-63
2023/06/16 03:46:01;;;;;;;;;;;;;;;28.05;27.37;101022.53;5093014;28;19957;-63
2023/06/16 03:48:27;;;;;;;;;;;;;;;28.09;27.46;101021.63;5094432;28;19912;-62
2023/06/16 03:50:52;;;;;;;;;;;;;;;28.12;27.09;101023.81;5094084;28;19920;-62
2023/06/16 03:53:18;;;;;;;;;;;;;;;28.13;27.19;101017.16;5092789;28;19923;-62
2023/06/16 03:55:43;;;;;;;;;;;;;;;28.12;27.55;101025.72;5094125;28;19935;-62
2023/06/16 03:58:10;;;;;;;;;;;;;;;28.12;26.96;101014.69;5094228;28;19916;-62
2023/06/16 04:00:36;;;;;;;;;;;;;;;28.23;27.36;101015.34;5097650;28;20291;-62
2023/06/16 04:03:01;;;;;;;;;;;;;;;28.27;27.24;101017.22;5114319;28;20344;-61
2023/06/16 04:05:27;;;;;;;;;;;;;;;28.32;27.14;101016.31;5114459;28;19943;-61
2023/06/16 04:07:54;;;;;;;;;;;;;;;28.32;27.21;101013.56;5114243;28;19919;-61
2023/06/16 04:10:19;;;;;;;;;;;;;;;28.38;27.00;101015.13;5114637;28;19934;-62
2023/06/16 04:12:44;;;;;;;;;;;;;;;28.40;26.94;101012.91;5113386;28;20368;-62
2023/06/16 04:15:10;;;;;;;;;;;;;;;28.38;27.02;101010.41;5114218;28;19912;-62
2023/06/16 04:17:35;;;;;;;;;;;;;;;28.39;26.96;101011.25;5114117;28;19954;-62
2023/06/16 04:20:00;;;;;;;;;;;;;;;28.47;26.79;101009.72;5103910;28;19912;-61
2023/06/16 04:22:25;;;;;;;;;;;;;;;28.52;26.57;101009.66;5093575;28;19912;-61
2023/06/16 04:24:51;;;;;;;;;;;;;;;28.52;26.57;101017.94;5092291;28;19965;-62
2023/06/16 04:27:17;;;;;;;;;;;;;;;28.55;26.53;101009.91;5094112;28;20437;-60
2023/06/16 04:29:42;;;;;;;;;;;;;;;28.59;26.64;101010.13;5093775;28;20431;-60
2023/06/16 04:32:10;;;;;;;;;;;;;;;28.63;26.81;101011.16;5093536;28;19916;-61
2023/06/16 04:34:36;;;;;;;;;;;;;;;28.67;26.59;101011.38;5093443;28;19920;-60
2023/06/16 04:37:01;;;;;;;;;;;;;;;28.74;26.54;101014.56;5093428;28;19912;-61
2023/06/16 04:39:26;;;;;;;;;;;;;;;28.77;26.05;101014.78;5093644;28;20292;-61
2023/06/16 04:41:52;;;;;;;;;;;;;;;28.82;26.30;101015.81;5093557;28;19916;-61
2023/06/16 04:44:17;;;;;;;;;;;;;;;28.90;26.00;101012.34;5093317;28;19916;-60
2023/06/16 04:46:43;;;;;;;;;;;;;;;28.90;25.86;101010.41;5093594;28;19961;-60
2023/06/16 04:49:09;;;;;;;;;;;;;;;28.91;26.07;101005.69;5093474;28;19916;-61
2023/06/16 04:51:34;;;;;;;;;;;;;;;28.98;26.17;101002.53;5093006;28;19975;-61
2023/06/16 04:54:00;;;;;;;;;;;;;;;29.01;25.88;101002.75;5093068;28;19951;-61
2023/06/16 04:56:25;;;;;;;;;;;;;;;29.02;26.01;101003.56;5091344;28;20460;-60
2023/06/16 04:58:50;;;;;;;;;;;;;;;29.06;26.14;101001.81;5113759;28;19946;-61
2023/06/16 05:01:15;;;;;;;;;;;;;;;29.11;25.81;101005.31;5113532;28;19999;-62
2023/06/16 05:03:41;;;;;;;;;;;;;;;29.12;26.03;101004.22;5113726;28;20394;-61
2023/06/16 05:06:06;;;;;;;;;;;;;;;29.13;27.24;101003.09;5115737;28;19911;-61
2023/06/16 05:08:32;;;;;;;;;;;;;;;29.18;26.70;101006.88;5115614;28;19965;-62
2023/06/16 05:10:57;;;;;;;;;;;;;;;29.19;26.33;101006.59;5113892;28;19964;-62
2023/06/16 05:13:23;;;;;;;;;;;;;;;29.29;26.92;101006.41;5112956;28;19922;-60
2023/06/16 05:15:48;;;;;;;;;;;;;;;29.30;27.91;101004.44;5113751;28;19912;-62
2023/06/16 05:18:13;;;;;;;;;;;;;;;29.34;27.25;101011.00;5113366;28;19912;-62
2023/06/16 05:20:39;;;;;;;;;;;;;;;29.33;29.31;101009.38;5097510;28;20015;-62
2023/06/16 05:23:05;;;;;;;;;;;;;;;29.33;29.23;101012.13;5092988;28;19919;-61
2023/06/16 05:25:31;;;;;;;;;;;;;;;29.32;29.48;101007.72;5092764;28;20249;-61
2023/06/16 05:27:56;;;;;;;;;;;;;;;29.39;28.56;100999.81;5091584;28;19919;-60
2023/06/16 05:30:21;;;;;;;;;;;;;;;29.48;27.97;101011.00;5092862;28;19987;-61
2023/06/16 05:32:46;;;;;;;;;;;;;;;29.48;28.06;101011.81;5092626;28;19916;-62
2023/06/16 05:35:12;;;;;;;;;;;;;;;29.57;27.46;101013.84;5092475;28;19918;-63
2023/06/16 05:37:37;;;;;;;;;;;;;;;29.53;27.85;101010.88;5092364;28;20007;-62
2023/06/16 05:40:02;;;;;;;;;;;;;;;29.48;28.66;101000.75;5092200;28;20356;-61
2023/06/16 05:42:27;;;;;;;;;;;;;;;29.50;27.44;101000.44;5092672;28;19944;-62
2023/06/16 05:44:53;;;;;;;;;;;;;;;29.56;27.40;101001.16;5092877;28;20330;-62
2023/06/16 05:47:19;;;;;;;;;;;;;;;29.56;27.91;100999.19;5092860;28;19991;-62
2023/06/16 05:49:44;;;;;;;;;;;;;;;29.66;27.31;101001.78;5092769;28;19912;-61
2023/06/16 05:52:09;;;;;;;;;;;;;;;29.74;27.08;101008.56;5092353;28;19924;-62
2023/06/16 05:54:38;;;;;;;;;;;;;;;29.75;27.32;101004.63;5091062;28;20027;-61
2023/06/16 05:57:03;;;;;;;;;;;;;;;29.81;27.35;101008.09;5092604;28;19919;-61
2023/06/16 05:59:28;;;;;;;;;;;;;;;29.78;27.62;101009.56;5092454;28;19912;-62
2023/06/16 06:01:54;;;;;;;;;;;;;;;29.79;26.83;101015.91;5092734;28;19912;-62
2023/06/16 06:04:21;;;;;;;;;;;;;;;29.85;27.00;101012.72;5092488;28;19938;-62
2023/06/16 06:06:46;;;;;;;;;;;;;;;29.94;27.18;101012.81;5094320;28;20259;-63
2023/06/16 06:09:11;;;;;;;;;;;;;;;29.97;26.94;101014.16;5096130;28;20026;-62
2023/06/16 06:11:37;;;;;;;;;;;;;;;30.02;26.59;101011.25;5095282;28;19919;-61
2023/06/16 06:14:02;;;;;;;;;;;;;;;30.06;26.41;101018.63;5096282;28;19951;-61
2023/06/16 06:16:28;;;;;;;;;;;;;;;30.07;26.26;101019.44;5096036;28;20485;-61
2023/06/16 06:18:53;;;;;;;;;;;;;;;30.01;27.88;101017.91;5095763;28;19912;-62
2023/06/16 06:21:18;;;;;;;;;;;;;;;30.06;29.30;101020.59;5095757;28;20283;-61
2023/06/16 06:23:44;;;;;;;;;;;;;;;30.02;29.57;101025.13;5092749;28;19916;-61
2023/06/16 06:26:09;;;;;;;;;;;;;;;30.17;28.14;101015.63;5095424;28;19916;-60
2023/06/16 06:28:35;;;;;;;;;;;;;;;30.28;29.00;101008.72;5095780;28;19944;-61
2023/06/16 06:31:00;;;;;;;;;;;;;;;30.38;29.12;101010.44;5094493;28;19920;-61
2023/06/16 06:33:25;;;;;;;;;;;;;;;30.44;29.01;101010.00;5095475;28;20418;-61
2023/06/16 06:35:51;;;;;;;;;;;;;;;30.56;28.32;101016.94;5095930;28;19916;-61
2023/06/16 06:38:17;;;;;;;;;;;;;;;30.53;28.11;101020.34;5095338;28;20318;-62
2023/06/16 06:40:42;;;;;;;;;;;;;;;30.62;27.85;101016.47;5095536;28;19912;-61
2023/06/16 06:43:07;;;;;;;;;;;;;;;30.62;27.77;101016.47;5095633;28;19912;-60
2023/06/16 06:45:32;;;;;;;;;;;;;;;30.67;27.92;101010.81;5095667;27;19944;-61
2023/06/16 06:47:58;;;;;;;;;;;;;;;30.69;27.29;101011.31;5095233;28;19919;-65
2023/06/16 06:50:23;;;;;;;;;;;;;;;30.75;27.11;101003.69;5107651;28;19998;-63
2023/06/16 06:52:48;;;;;;;;;;;;;;;30.79;26.76;101006.63;5115033;28;19916;-64
2023/06/16 06:55:13;;;;;;;;;;;;;;;30.91;26.60;101011.66;5114755;28;20367;-63
2023/06/16 06:57:40;;;;;;;;;;;;;;;30.87;26.60;101006.69;5114979;28;20335;-64
2023/06/16 07:00:07;;;;;;;;;;;;;;;30.91;26.07;101004.13;5115255;28;19912;-63
2023/06/16 07:02:32;;;;;;;;;;;;;;;30.97;26.12;101013.13;5114876;28;19912;-63
2023/06/16 07:04:57;;;;;;;;;;;;;;;31.03;26.07;101014.63;5115129;28;19911;-62
2023/06/16 07:07:24;;;;;;;;;;;;;;;31.13;25.79;101013.53;5114973;28;19943;-63
2023/06/16 07:09:49;;;;;;;;;;;;;;;31.18;26.00;101010.63;5115729;28;20333;-63
2023/06/16 07:12:14;;;;;;;;;;;;;;;31.21;25.89;101016.34;5114758;28;20402;-63
2023/06/16 07:14:40;;;;;;;;;;;;;;;31.22;25.87;101014.38;5115341;28;19922;-63
2023/06/16 07:17:05;;;;;;;;;;;;;;;31.31;25.17;101012.47;5115510;28;20352;-62
2023/06/16 07:19:30;;;;;;;;;;;;;;;31.27;25.98;101008.69;5108571;28;20259;-63
2023/06/16 07:21:57;;;;;;;;;;;;;;;31.34;25.37;101011.03;5094921;28;19912;-63
2023/06/16 07:24:22;;;;;;;;;;;;;;;31.49;24.73;101012.56;5094842;28;19935;-64
2023/06/16 07:26:48;;;;;;;;;;;;;;;31.55;24.63;101014.03;5094885;28;20357;-63
2023/06/16 07:29:13;;;;;;;;;;;;;;;31.62;23.94;101011.63;5094681;28;20019;-63
2023/06/16 07:31:38;;;;;;;;;;;;;;;31.72;25.03;101019.63;5094477;28;19920;-64
2023/06/16 07:34:03;;;;;;;;;;;;;;;31.83;25.08;101014.59;5094228;28;19942;-64
2023/06/16 07:36:30;;;;;;;;;;;;;;;31.84;25.18;101017.06;5093994;28;19939;-63
2023/06/16 07:38:56;;;;;;;;;;;;;;;31.88;25.20;101008.06;5094244;28;19916;-63
2023/06/16 07:41:21;;;;;;;;;;;;;;;31.92;24.78;101015.41;5092994;28;19920;-63
2023/06/16 07:43:48;;;;;;;;;;;;;;;31.99;24.77;101012.16;5094519;28;19912;-63
2023/06/16 07:46:13;;;;;;;;;;;;;;;32.03;24.15;101014.00;5103411;28;19919;-63
2023/06/16 07:48:39;;;;;;;;;;;;;;;32.08;24.43;101012.22;5114441;28;19915;-63
2023/06/16 07:51:04;;;;;;;;;;;;;;;32.15;24.10;101012.53;5114402;28;19962;-63
2023/06/16 07:53:29;;;;;;;;;;;;;;;32.21;23.89;101003.69;5114322;28;20290;-63
2023/06/16 07:55:54;;;;;;;;;;;;;;;32.25;23.65;101014.19;5147369;27;19912;-63
2023/06/16 07:58:22;;;;;;;;;;;;;;;32.35;23.56;101011.84;5114535;27;19912;-63
2023/06/16 08:00:47;;;;;;;;;;;;;;;32.46;23.39;101011.53;5113975;28;20425;-63
2023/06/16 08:03:12;;;;;;;;;;;;;;;32.48;23.69;101009.25;5112536;28;19912;-62
2023/06/16 08:05:38;;;;;;;;;;;;;;;32.55;23.62;101004.00;5113948;28;19941;-62
2023/06/16 08:08:03;;;;;;;;;;;;;;;32.59;23.40;101008.59;5113853;28;20416;-62
2023/06/16 08:10:28;;;;;;;;;;;;;;;32.70;23.16;101003.50;5113651;28;19918;-62
2023/06/16 08:12:54;;;;;;;;;;;;;;;32.78;22.77;100999.91;5113937;28;19938;-62
2023/06/16 08:15:20;;;;;;;;;;;;;;;32.84;22.91;101003.31;5114356;28;19915;-62
2023/06/16 08:17:45;;;;;;;;;;;;;;;32.94;23.01;101002.13;5114412;28;19911;-62
2023/06/16 08:20:11;;;;;;;;;;;;;;;32.93;23.28;100997.69;5102499;28;20386;-63
2023/06/16 08:22:36;;;;;;;;;;;;;;;33.01;23.00;101005.22;5092416;28;19912;-63
2023/06/16 08:25:02;;;;;;;;;;;;;;;33.09;22.52;100998.78;5093528;28;19992;-62
2023/06/16 08:27:27;;;;;;;;;;;;;;;33.23;22.86;101008.91;5093632;28;19935;-64
2023/06/16 08:29:53;;;;;;;;;;;;;;;33.26;22.64;101006.28;5092963;28;20260;-63
2023/06/16 08:32:19;;;;;;;;;;;;;;;33.37;22.34;100999.19;5093273;28;19916;-63
2023/06/16 08:34:44;;;;;;;;;;;;;;;33.44;22.28;101000.63;5093445;28;19958;-63
2023/06/16 08:37:09;;;;;;;;;;;;;;;33.57;22.20;100994.00;5093375;28;19963;-63
2023/06/16 08:39:35;;;;;;;;;;;;;;;33.59;22.34;101000.06;5093217;28;19912;-63
2023/06/16 08:42:01;;;;;;;;;;;;;;;33.68;21.83;101003.63;5098352;28;19955;-62
2023/06/16 08:44:26;;;;;;;;;;;;;;;33.63;21.68;101000.19;5113498;28;19951;-62
2023/06/16 08:46:52;;;;;;;;;;;;;;;33.75;21.59;100992.75;5113620;28;19922;-63
2023/06/16 08:49:18;;;;;;;;;;;;;;;33.84;21.64;100994.66;5113818;28;20295;-63
2023/06/16 08:51:47;;;;;;;;;;;;;;;33.95;21.47;100995.88;5113253;28;19942;-62
2023/06/16 08:54:13;;;;;;;;;;;;;;;34.06;21.84;100993.50;5113277;28;19920;-63
2023/06/16 08:56:41;;;;;;;;;;;;;;;34.17;21.55;100997.53;5113445;28;19912;-63
2023/06/16 08:59:06;;;;;;;;;;;;;;;34.24;21.15;100991.44;5113344;28;19956;-62
2023/06/16 09:01:33;;;;;;;;;;;;;;;34.39;21.21;100989.97;5113257;28;19973;-63
2023/06/16 09:03:58;;;;;;;;;;;;;;;34.47;21.02;100995.47;5113368;28;19911;-62
2023/06/16 09:06:25;;;;;;;;;;;;;;;34.53;20.56;100984.91;5113659;27;19912;-63
2023/06/16 09:08:52;;;;;;;;;;;;;;;34.61;20.82;100986.78;5111788;28;19916;-63
2023/06/16 09:11:22;;;;;;;;;;;;;;;34.72;20.94;100980.81;5145687;27;19919;-63
2023/06/16 09:13:47;;;;;;;;;;;;;;;34.83;20.59;100982.00;5146305;27;19916;-63
2023/06/16 09:16:21;;;;;;;;;;;;;;;34.95;20.53;100983.97;5113512;28;19911;-63
2023/06/16 09:18:47;;;;;;;;;;;;;;;34.99;20.41;100968.97;5113223;28;20436;-64
2023/06/16 09:21:17;;;;;;;;;;;;;;;35.06;20.31;100976.78;5092799;28;19919;-63
2023/06/16 09:23:42;;;;;;;;;;;;;;;35.15;19.72;100969.09;5092938;28;19913;-63
2023/06/16 09:26:12;;;;;;;;;;;;;;;35.22;20.28;100968.56;5091420;28;20383;-63
2023/06/16 09:28:37;;;;;;;;;;;;;;;35.22;19.66;100972.16;5092744;28;19918;-63
2023/06/16 09:31:07;;;;;;;;;;;;;;;35.26;20.01;100961.09;5092461;28;19912;-63
2023/06/16 09:33:33;;;;;;;;;;;;;;;35.46;18.85;100964.94;5091171;28;19978;-63
2023/06/16 09:35:58;;;;;;;;;;;;;;;35.52;19.21;100963.50;5092628;28;19916;-63
2023/06/16 09:38:25;;;;;;;;;;;;;;;35.58;19.05;100967.69;5098790;28;19959;-63
2023/06/16 09:40:50;;;;;;;;;;;;;;;35.73;18.35;100959.78;5113126;28;19916;-63
2023/06/16 09:43:15;;;;;;;;;;;;;;;35.74;17.70;100958.63;5116971;28;19912;-63
2023/06/16 09:45:41;;;;;;;;;;;;;;;35.84;18.00;100955.31;5116719;28;19912;-62
2023/06/16 09:48:08;;;;;;;;;;;;;;;35.93;18.23;100960.78;5117212;28;19912;-63
2023/06/16 09:50:35;;;;;;;;;;;;;;;36.03;18.28;100951.88;5116794;28;19919;-63
2023/06/16 09:53:03;;;;;;;;;;;;;;;36.17;17.80;100957.06;5116817;28;19933;-63
2023/06/16 09:55:28;;;;;;;;;;;;;;;36.30;18.17;100955.88;5116778;28;19912;-63
2023/06/16 09:57:54;;;;;;;;;;;;;;;36.43;17.45;100946.22;5116844;28;19912;-63
2023/06/16 10:00:20;;;;;;;;;;;;;;;36.64;17.91;100945.16;5117051;28;20289;-63
2023/06/16 10:02:49;;;;;;;;;;;;;;;36.80;18.05;100946.03;5115411;28;19955;-63
2023/06/16 10:05:17;;;;;;;;;;;;;;;36.98;17.77;100952.06;5116652;28;19919;-63
2023/06/16 10:07:44;;;;;;;;;;;;;;;37.08;17.33;100947.91;5099570;27;20378;-63
2023/06/16 10:10:11;;;;;;;;;;;;;;;37.24;17.43;100944.28;5095988;28;20461;-63
2023/06/16 10:12:37;;;;;;;;;;;;;;;37.27;16.09;100937.97;5095181;28;19916;-62
2023/06/16 10:15:03;;;;;;;;;;;;;;;37.37;16.07;100934.59;5096109;28;19912;-63
2023/06/16 10:17:30;;;;;;;;;;;;;;;37.60;16.69;100939.50;5096033;28;20339;-63
2023/06/16 10:19:56;;;;;;;;;;;;;;;37.81;16.37;100942.78;5095786;28;19912;-62
2023/06/16 10:22:21;;;;;;;;;;;;;;;38.01;16.01;100940.00;5096231;28;19919;-63
2023/06/16 10:24:47;;;;;;;;;;;;;;;38.08;15.94;100938.16;5095790;28;19920;-63
2023/06/16 10:27:13;;;;;;;;;;;;;;;38.24;16.97;100932.44;5095738;28;19913;-62
2023/06/16 10:29:38;;;;;;;;;;;;;;;38.35;16.16;100935.47;5094110;28;19912;-63
2023/06/16 10:32:07;;;;;;;;;;;;;;;38.32;16.17;100933.41;5095887;28;19998;-63
2023/06/16 10:34:44;;;;;;;;;;;;;;;38.19;15.99;100938.38;5100675;28;19920;-63
2023/06/16 10:37:09;;;;;;;;;;;;;;;38.18;16.50;100933.13;5116130;28;19919;-63
2023/06/16 10:39:40;;;;;;;;;;;;;;;38.09;14.09;100931.38;5149272;27;19912;-63
2023/06/16 10:42:07;;;;;;;;;;;;;;;37.95;15.78;100931.06;5116146;28;19911;-63
2023/06/16 10:44:32;;;;;;;;;;;;;;;38.10;16.49;100926.59;5115938;28;20022;-63
2023/06/16 10:47:13;;;;;;;;;;;;;;;38.28;16.46;100922.13;5115825;28;20570;-63
2023/06/16 10:50:00;;;;;;;;;;;;;;;38.64;15.96;100922.78;5115836;27;19912;-63
2023/06/16 10:52:28;;;;;;;;;;;;;;;38.96;16.18;100914.06;5115053;28;19968;-63
2023/06/16 10:54:55;;;;;;;;;;;;;;;39.24;15.64;100910.09;5115510;28;20010;-62
2023/06/16 10:57:20;;;;;;;;;;;;;;;39.36;15.20;100917.47;5115753;27;19938;-62
2023/06/16 10:59:55;;;;;;;;;;;;;;;39.09;15.38;100901.47;5115600;28;20367;-62
2023/06/16 11:02:26;;;;;;;;;;;;;;;39.28;15.47;100900.56;5148627;27;19935;-63
2023/06/16 11:05:10;;;;;;;;;;;;;;;39.50;15.66;100895.22;5115687;28;19911;-63
2023/06/16 11:07:39;;;;;;;;;;;;;;;39.79;15.24;100885.16;5115405;28;20485;-63
2023/06/16 11:10:05;;;;;;;;;;;;;;;39.94;15.29;100893.78;5115623;27;19922;-63
2023/06/16 11:12:30;;;;;;;;;;;;;;;40.09;14.31;100889.94;5114661;27;19947;-63
2023/06/16 11:14:56;;;;;;;;;;;;;;;40.26;14.57;100896.94;5115194;28;20082;-63
2023/06/16 11:17:22;;;;;;;;;;;;;;;40.56;14.61;100888.38;5114740;28;19912;-63
2023/06/16 11:19:51;;;;;;;;;;;;;;;41.00;14.52;100886.72;5106882;28;19952;-63
2023/06/16 11:22:16;;;;;;;;;;;;;;;40.99;13.88;100877.47;5094872;28;19912;-63
2023/06/16 11:24:42;;;;;;;;;;;;;;;40.78;13.20;100880.94;5094186;28;20038;-63
2023/06/16 11:27:07;;;;;;;;;;;;;;;40.85;13.50;100876.56;5093048;28;19927;-63
2023/06/16 11:29:36;;;;;;;;;;;;;;;41.15;13.72;100868.69;5095039;28;20341;-63
2023/06/16 11:32:02;;;;;;;;;;;;;;;41.52;13.20;100867.69;5110700;28;19965;-63
2023/06/16 11:34:27;;;;;;;;;;;;;;;41.68;12.33;100864.56;5115131;28;20493;-63
2023/06/16 11:36:53;;;;;;;;;;;;;;;42.04;12.01;100861.81;5114778;28;19942;-63
2023/06/16 11:39:18;;;;;;;;;;;;;;;42.28;11.88;100859.47;5114885;27;19916;-63
2023/06/16 11:41:43;;;;;;;;;;;;;;;42.79;11.97;100861.06;5114761;28;19915;-63
2023/06/16 11:44:13;;;;;;;;;;;;;;;43.38;10.71;100852.06;5115055;28;19912;-63
2023/06/16 11:46:39;;;;;;;;;;;;;;;43.83;10.90;100846.59;5114577;28;19933;-63
2023/06/16 11:49:04;;;;;;;;;;;;;;;44.21;10.36;100846.78;5114525;28;20353;-63
2023/06/16 11:51:29;;;;;;;;;;;;;;;44.52;10.84;100838.44;5114453;28;19919;-64
2023/06/16 12:15:17;;;;;;;;;;;;;;;46.19;9.15;100838.81;5093753;28;19999;-63
2023/06/16 12:17:42;;;;;;;;;;;;;;;46.47;7.60;100828.22;5093686;28;20267;-64
2023/06/16 12:20:09;;;;;;;;;;;;;;;46.21;7.75;100819.28;5093074;28;19912;-64
2023/06/16 12:22:35;;;;;;;;;;;;;;;46.05;8.86;100834.16;5093573;28;20021;-64
2023/06/16 12:25:01;;;;;;;;;;;;;;;46.35;8.94;100821.91;5093737;28;20337;-64
2023/06/16 12:27:26;;;;;;;;;;;;;;;46.76;8.06;100822.00;5102201;28;19927;-64
2023/06/16 12:29:55;;;;;;;;;;;;;;;47.11;8.03;100811.97;5114007;28;19912;-64
2023/06/16 12:32:27;;;;;;;;;;;;;;;47.56;7.55;100819.94;5113630;28;20436;-63
2023/06/16 12:34:52;;;;;;;;;;;;;;;48.02;8.01;100817.31;5146827;27;19958;-63
2023/06/16 12:37:18;;;;;;;;;;;;;;;48.57;7.37;100806.91;5113726;28;19959;-63
2023/06/16 12:39:54;;;;;;;;;;;;;;;49.11;6.90;100807.47;5113952;28;19918;-63
2023/06/16 12:42:25;;;;;;;;;;;;;;;49.43;6.95;100806.53;5113986;28;19916;-64
2023/06/16 12:44:55;;;;;;;;;;;;;;;49.70;7.01;100808.91;5113604;28;19916;-63
2023/06/16 12:47:21;;;;;;;;;;;;;;;50.07;7.24;100806.50;5114060;28;20291;-64
2023/06/16 12:49:47;;;;;;;;;;;;;;;50.37;6.44;100804.25;5112427;28;20440;-64
2023/06/16 12:52:13;;;;;;;;;;;;;;;50.81;6.29;100807.19;5113352;27;19919;-64
2023/06/16 12:54:39;;;;;;;;;;;;;;;50.64;6.17;100808.66;5113517;28;19916;-63